METAR Data
IDs: Format: Raw Decoded Include TAF

Data at: 2020 UTC 26 Sep 2021

KDSM 261954Z 18011KT 10SM FEW140 FEW220 29/12 A2974 RMK AO2 SLP064 T02890117